createdAt,value
2023-05-06T00:00:29.913Z,67.82
2023-05-06T00:02:31.587Z,67.46
2023-05-06T00:04:33.384Z,66.92
2023-05-06T00:06:35.110Z,66.60
2023-05-06T00:08:36.700Z,66.34
2023-05-06T00:10:38.279Z,66.45
2023-05-06T00:12:39.898Z,66.38
2023-05-06T00:14:41.469Z,66.25
2023-05-06T00:16:43.090Z,66.22
2023-05-06T00:18:44.660Z,66.13
2023-05-06T00:20:46.218Z,66.05
2023-05-06T00:22:48.014Z,66.16
2023-05-06T00:24:49.542Z,65.92
2023-05-06T00:26:51.110Z,66.05
2023-05-06T00:28:52.678Z,65.96
2023-05-06T00:30:54.210Z,66.04
2023-05-06T00:32:56.159Z,65.82
2023-05-06T00:34:57.832Z,66.10
2023-05-06T00:36:59.447Z,66.02
2023-05-06T00:39:00.960Z,65.87
2023-05-06T00:41:03.450Z,65.71
2023-05-06T00:43:05.249Z,65.83
2023-05-06T00:45:25.859Z,65.81
2023-05-06T00:47:27.730Z,65.63
2023-05-06T00:49:29.608Z,65.72
2023-05-06T00:51:31.294Z,65.82
2023-05-06T00:53:33.491Z,65.72
2023-05-06T00:55:35.112Z,66.06
2023-05-06T00:57:36.732Z,65.88
2023-05-06T00:59:38.536Z,65.74
2023-05-06T01:01:40.493Z,65.99
2023-05-06T01:03:42.312Z,65.87
2023-05-06T01:05:55.258Z,66.22
2023-05-06T01:08:02.753Z,66.22
2023-05-06T01:10:23.106Z,65.73
2023-05-06T01:12:51.214Z,66.15
2023-05-06T01:15:17.178Z,66.21
2023-05-06T01:17:19.548Z,66.18
2023-05-06T01:19:34.926Z,66.31
2023-05-06T01:21:38.016Z,67.04
2023-05-06T01:23:57.921Z,67.46
2023-05-06T01:26:00.004Z,68.56
2023-05-06T01:28:01.689Z,69.32
2023-05-06T01:30:03.932Z,69.83
2023-05-06T01:32:30.132Z,69.77
2023-05-06T01:34:42.165Z,69.08
2023-05-06T01:37:02.212Z,68.62
2023-05-06T01:39:09.686Z,68.20
2023-05-06T01:41:16.026Z,68.06
2023-05-06T01:43:18.833Z,68.19
2023-05-06T01:45:21.082Z,68.44
2023-05-06T01:47:23.306Z,68.40
2023-05-06T01:49:26.162Z,68.10
2023-05-06T01:51:28.317Z,68.08
2023-05-06T01:53:29.917Z,68.07
2023-05-06T01:55:32.245Z,68.02
2023-05-06T01:57:33.871Z,67.68
2023-05-06T01:59:35.441Z,67.63
2023-05-06T02:01:37.027Z,67.32
2023-05-06T02:03:38.729Z,67.53
2023-05-06T02:05:40.349Z,67.42
2023-05-06T02:07:42.004Z,67.31
2023-05-06T02:09:43.597Z,67.31
2023-05-06T02:11:45.323Z,66.96
2023-05-06T02:13:47.034Z,66.96
2023-05-06T02:15:55.604Z,66.79
2023-05-06T02:17:57.356Z,67.22
2023-05-06T02:19:59.359Z,67.08
2023-05-06T02:22:00.892Z,66.91
2023-05-06T02:24:02.548Z,66.96
2023-05-06T02:26:04.486Z,66.84
2023-05-06T02:28:06.163Z,66.84
2023-05-06T02:30:08.120Z,66.80
2023-05-06T02:32:09.681Z,66.84
2023-05-06T02:34:11.337Z,66.97
2023-05-06T02:36:13.144Z,66.71
2023-05-06T02:38:14.856Z,66.55
2023-05-06T02:40:16.516Z,66.58
2023-05-06T02:42:18.236Z,66.43
2023-05-06T02:44:19.899Z,66.74
2023-05-06T02:46:21.590Z,66.68
2023-05-06T02:48:23.664Z,67.04
2023-05-06T02:50:25.522Z,67.00
2023-05-06T02:52:27.101Z,67.11
2023-05-06T02:54:28.746Z,66.89
2023-05-06T02:56:31.193Z,67.08
2023-05-06T02:58:32.821Z,67.13
2023-05-06T03:00:34.766Z,67.15
2023-05-06T03:02:36.575Z,66.84
2023-05-06T03:04:38.256Z,67.13
2023-05-06T03:06:40.154Z,66.95
2023-05-06T03:08:41.731Z,67.18
2023-05-06T03:10:43.273Z,67.03
2023-05-06T03:12:44.848Z,66.95
2023-05-06T03:14:46.447Z,66.91
2023-05-06T03:16:48.196Z,66.79
2023-05-06T03:18:49.812Z,67.25
2023-05-06T03:20:51.545Z,67.11
2023-05-06T03:22:53.504Z,67.28
2023-05-06T03:24:55.061Z,66.91
2023-05-06T03:26:58.551Z,66.95
2023-05-06T03:29:00.198Z,67.35
2023-05-06T03:31:01.771Z,67.20
2023-05-06T03:33:03.555Z,67.33
2023-05-06T03:35:06.763Z,67.30
2023-05-06T03:37:08.340Z,66.88
2023-05-06T03:39:10.326Z,66.98
2023-05-06T03:41:12.073Z,67.07
2023-05-06T03:43:13.649Z,66.98
2023-05-06T03:45:15.312Z,66.74
2023-05-06T03:47:17.317Z,66.78
2023-05-06T03:49:20.718Z,66.57
2023-05-06T03:51:22.471Z,66.83
2023-05-06T03:53:24.104Z,66.40
2023-05-06T03:55:25.796Z,66.52
2023-05-06T03:57:27.339Z,66.34
2023-05-06T03:59:28.933Z,66.30
2023-05-06T04:01:30.591Z,66.29
2023-05-06T04:03:32.259Z,66.22
2023-05-06T04:05:33.947Z,66.48
2023-05-06T04:07:35.653Z,66.70
2023-05-06T04:09:37.310Z,66.86
2023-05-06T04:11:38.885Z,66.91
2023-05-06T04:13:40.459Z,66.22
2023-05-06T04:15:42.677Z,66.41
2023-05-06T04:17:44.297Z,66.92
2023-05-06T04:19:46.041Z,67.59
2023-05-06T04:21:47.637Z,68.27
2023-05-06T04:23:49.677Z,68.03
2023-05-06T04:25:51.286Z,67.57
2023-05-06T04:27:53.389Z,66.79
2023-05-06T04:29:54.987Z,66.27
2023-05-06T04:31:56.971Z,65.51
2023-05-06T04:33:59.208Z,65.20
2023-05-06T04:36:00.963Z,65.01
2023-05-06T04:38:02.596Z,64.51
2023-05-06T04:40:04.683Z,64.20
2023-05-06T04:42:06.488Z,64.04
2023-05-06T04:44:08.095Z,63.82
2023-05-06T04:46:10.647Z,64.05
2023-05-06T04:48:12.352Z,63.86
2023-05-06T04:50:14.065Z,63.30
2023-05-06T04:52:15.629Z,63.20
2023-05-06T04:54:17.254Z,63.05
2023-05-06T04:56:18.914Z,63.07
2023-05-06T04:58:20.602Z,62.89
2023-05-06T05:00:22.729Z,62.79
2023-05-06T05:02:24.444Z,62.52
2023-05-06T05:04:26.571Z,62.17
2023-05-06T05:06:28.104Z,62.19
2023-05-06T05:08:29.800Z,61.53
2023-05-06T05:10:31.524Z,60.78
2023-05-06T05:12:33.104Z,60.61
2023-05-06T05:14:34.731Z,60.32
2023-05-06T05:16:36.386Z,60.38
2023-05-06T05:18:38.042Z,59.96
2023-05-06T05:20:39.687Z,59.79
2023-05-06T05:22:41.262Z,59.17
2023-05-06T05:24:42.914Z,58.55
2023-05-06T05:26:44.518Z,58.58
2023-05-06T05:28:46.229Z,58.53
2023-05-06T05:30:47.840Z,60.36
2023-05-06T05:32:49.553Z,61.05
2023-05-06T05:34:51.288Z,61.76
2023-05-06T05:36:53.036Z,62.15
2023-05-06T05:38:54.619Z,62.28
2023-05-06T05:40:56.286Z,62.51
2023-05-06T05:42:57.850Z,62.33
2023-05-06T05:45:00.136Z,61.94
2023-05-06T05:47:02.475Z,61.89
2023-05-06T05:49:04.019Z,62.09
2023-05-06T05:51:05.806Z,61.67
2023-05-06T05:53:07.367Z,61.17
2023-05-06T05:55:09.603Z,61.15
2023-05-06T05:57:11.365Z,60.66
2023-05-06T05:59:13.032Z,61.27
2023-05-06T06:01:14.726Z,62.20
2023-05-06T06:03:18.138Z,62.72
2023-05-06T06:05:19.812Z,62.38
2023-05-06T06:07:21.366Z,62.93
2023-05-06T06:09:22.994Z,62.77
2023-05-06T06:11:26.897Z,63.02
2023-05-06T06:13:29.116Z,62.90
2023-05-06T06:15:31.753Z,62.25
2023-05-06T06:17:33.333Z,61.85
2023-05-06T06:19:34.877Z,61.79
2023-05-06T06:21:36.894Z,62.31
2023-05-06T06:23:38.478Z,62.54
2023-05-06T06:25:40.072Z,62.54
2023-05-06T06:27:41.688Z,62.40
2023-05-06T06:29:43.305Z,61.74
2023-05-06T06:31:44.934Z,62.08
2023-05-06T06:33:46.501Z,62.46
2023-05-06T06:35:48.142Z,62.95
2023-05-06T06:37:49.833Z,62.32
2023-05-06T06:39:51.358Z,62.43
2023-05-06T06:41:56.684Z,62.77
2023-05-06T06:43:58.303Z,62.37
2023-05-06T06:46:00.238Z,62.32
2023-05-06T06:48:01.938Z,62.33
2023-05-06T06:50:03.734Z,61.81
2023-05-06T06:52:06.035Z,61.23
2023-05-06T06:54:07.703Z,61.13
2023-05-06T06:56:12.266Z,60.41
2023-05-06T06:58:14.028Z,60.36
2023-05-06T07:00:16.092Z,59.97
2023-05-06T07:02:17.694Z,59.96
2023-05-06T07:04:19.453Z,59.90
2023-05-06T07:06:21.100Z,60.22
2023-05-06T07:08:22.774Z,60.12
2023-05-06T07:10:24.443Z,59.55
2023-05-06T07:12:26.926Z,59.51
2023-05-06T07:14:28.554Z,60.04
2023-05-06T07:16:30.144Z,59.96
2023-05-06T07:18:31.802Z,60.16
2023-05-06T07:20:33.545Z,59.68
2023-05-06T07:22:35.147Z,58.95
2023-05-06T07:24:36.795Z,58.61
2023-05-06T07:26:38.452Z,58.34
2023-05-06T07:28:40.062Z,58.50
2023-05-06T07:30:42.227Z,57.89
2023-05-06T07:32:43.854Z,57.83
2023-05-06T07:34:45.476Z,58.16
2023-05-06T07:36:47.077Z,57.29
2023-05-06T07:38:48.708Z,57.77
2023-05-06T07:40:51.382Z,56.71
2023-05-06T07:42:53.110Z,56.90
2023-05-06T07:44:54.694Z,57.38
2023-05-06T07:46:56.429Z,57.47
2023-05-06T07:48:58.142Z,57.75
2023-05-06T07:51:00.045Z,57.19
2023-05-06T07:53:01.884Z,57.05
2023-05-06T07:55:04.379Z,56.21
2023-05-06T07:57:05.974Z,56.19
2023-05-06T07:59:07.587Z,55.86
2023-05-06T08:01:09.243Z,56.58
2023-05-06T08:03:10.952Z,55.96
2023-05-06T08:05:13.636Z,56.79
2023-05-06T08:07:15.893Z,56.99
2023-05-06T08:09:22.738Z,56.85
2023-05-06T08:11:24.929Z,56.26
2023-05-06T08:13:27.088Z,55.80
2023-05-06T08:15:28.825Z,54.73
2023-05-06T08:17:30.437Z,55.38
2023-05-06T08:19:32.223Z,56.58
2023-05-06T08:21:33.831Z,57.46
2023-05-06T08:23:35.433Z,57.67
2023-05-06T08:25:37.073Z,57.88
2023-05-06T08:27:38.695Z,57.87
2023-05-06T08:29:40.365Z,56.91
2023-05-06T08:31:42.889Z,56.51
2023-05-06T08:33:44.615Z,57.07
2023-05-06T08:35:46.924Z,55.59
2023-05-06T08:37:48.483Z,55.12
2023-05-06T08:39:50.255Z,55.93
2023-05-06T08:41:52.780Z,55.02
2023-05-06T08:43:55.083Z,54.97
2023-05-06T08:45:56.767Z,54.98
2023-05-06T08:47:58.500Z,54.80
2023-05-06T08:50:01.467Z,54.62
2023-05-06T08:52:06.716Z,54.59
2023-05-06T08:54:08.756Z,55.10
2023-05-06T08:56:13.586Z,55.08
2023-05-06T08:58:16.927Z,55.09
2023-05-06T09:00:18.797Z,53.90
2023-05-06T09:02:22.452Z,53.50
2023-05-06T09:04:23.944Z,53.96
2023-05-06T09:06:25.606Z,53.61
2023-05-06T09:08:27.235Z,52.48
2023-05-06T09:10:33.375Z,51.87
2023-05-06T09:12:37.999Z,52.15
2023-05-06T09:14:40.244Z,51.97
2023-05-06T09:16:43.847Z,51.59
2023-05-06T09:18:45.485Z,51.94
2023-05-06T09:20:48.477Z,51.28
2023-05-06T09:22:50.823Z,49.51
2023-05-06T09:24:57.011Z,48.76
2023-05-06T09:26:58.789Z,49.04
2023-05-06T09:29:01.259Z,48.95
2023-05-06T09:31:03.063Z,49.82
2023-05-06T09:33:05.294Z,49.27
2023-05-06T09:35:07.695Z,48.43
2023-05-06T09:37:09.402Z,48.29
2023-05-06T09:39:11.078Z,48.49
2023-05-06T09:41:13.497Z,47.75
2023-05-06T09:43:15.707Z,47.64
2023-05-06T09:45:17.932Z,47.96
2023-05-06T09:47:20.832Z,47.23
2023-05-06T09:49:22.389Z,47.00
2023-05-06T09:51:24.201Z,46.10
2023-05-06T09:53:27.582Z,45.58
2023-05-06T09:55:29.564Z,46.24
2023-05-06T09:57:32.046Z,48.24
2023-05-06T09:59:33.720Z,48.45
2023-05-06T10:01:37.655Z,48.23
2023-05-06T10:03:40.025Z,48.20
2023-05-06T10:05:42.424Z,47.89
2023-05-06T10:07:45.355Z,47.89
2023-05-06T10:09:47.083Z,47.74
2023-05-06T10:11:48.774Z,48.02
2023-05-06T10:13:50.581Z,48.36
2023-05-06T10:15:52.322Z,47.95
2023-05-06T10:17:54.356Z,47.61
2023-05-06T10:19:58.925Z,47.78
2023-05-06T10:22:08.333Z,47.54
2023-05-06T10:24:12.035Z,47.99
2023-05-06T10:26:13.545Z,47.69
2023-05-06T10:28:27.767Z,47.44
2023-05-06T10:30:33.882Z,46.84
2023-05-06T10:32:38.625Z,47.50
2023-05-06T10:34:45.035Z,47.74
2023-05-06T10:36:48.934Z,47.63
2023-05-06T10:38:54.908Z,48.54
2023-05-06T10:40:57.284Z,48.28
2023-05-06T10:43:20.892Z,47.80
2023-05-06T10:45:22.609Z,47.08
2023-05-06T10:47:24.324Z,47.40
2023-05-06T10:49:26.153Z,47.23
2023-05-06T10:51:28.639Z,46.95
2023-05-06T10:54:18.751Z,46.37
2023-05-06T10:56:20.524Z,46.78
2023-05-06T10:58:22.104Z,47.35
2023-05-06T11:00:24.214Z,47.18
2023-05-06T11:02:26.281Z,46.52
2023-05-06T11:04:30.357Z,46.58
2023-05-06T11:06:34.080Z,46.70
2023-05-06T11:08:35.582Z,46.57
2023-05-06T11:10:37.510Z,44.07
2023-05-06T11:12:50.684Z,44.71
2023-05-06T11:14:52.369Z,44.95
2023-05-06T11:16:55.545Z,42.37
2023-05-06T11:18:57.248Z,41.99
2023-05-06T11:21:02.414Z,42.19
2023-05-06T11:23:04.079Z,42.02
2023-05-06T11:25:06.630Z,40.96
2023-05-06T11:27:09.385Z,40.77
2023-05-06T11:29:11.404Z,40.95
2023-05-06T11:31:13.956Z,40.26
2023-05-06T11:33:19.481Z,40.62
2023-05-06T11:35:22.953Z,40.06
2023-05-06T11:37:29.297Z,40.23
2023-05-06T11:39:40.486Z,39.26
2023-05-06T11:41:42.760Z,40.16
2023-05-06T11:43:50.057Z,40.07
2023-05-06T11:45:51.748Z,39.88
2023-05-06T11:47:54.578Z,40.29
2023-05-06T11:49:56.507Z,40.80
2023-05-06T11:51:58.180Z,40.34
2023-05-06T11:54:10.400Z,40.09
2023-05-06T11:56:12.038Z,40.69
2023-05-06T11:58:33.127Z,41.15
2023-05-06T12:00:34.668Z,40.19
2023-05-06T12:02:36.337Z,39.83
2023-05-06T12:04:45.234Z,39.62
2023-05-06T12:06:46.858Z,38.58
2023-05-06T12:08:48.443Z,39.21
2023-05-06T12:10:51.397Z,39.78
2023-05-06T12:12:53.086Z,40.18
2023-05-06T12:14:54.872Z,40.58
2023-05-06T12:16:56.791Z,39.92
2023-05-06T12:18:58.482Z,39.92
2023-05-06T12:21:02.793Z,40.42
2023-05-06T12:23:14.792Z,40.01
2023-05-06T12:25:16.535Z,39.20
2023-05-06T12:27:34.820Z,39.73
2023-05-06T12:29:36.460Z,40.03
2023-05-06T12:31:38.110Z,39.64
2023-05-06T12:33:46.523Z,39.17
2023-05-06T12:35:49.025Z,39.56
2023-05-06T12:37:50.599Z,39.03
2023-05-06T12:39:52.169Z,39.46
2023-05-06T12:41:54.164Z,40.07
2023-05-06T12:43:55.758Z,41.78
2023-05-06T12:46:05.244Z,42.90
2023-05-06T12:48:07.255Z,43.76
2023-05-06T12:50:09.487Z,43.36
2023-05-06T12:52:11.659Z,43.36
2023-05-06T12:54:39.459Z,43.25
2023-05-06T12:56:41.036Z,43.63
2023-05-06T12:58:42.618Z,43.78
2023-05-06T13:00:44.590Z,44.05
2023-05-06T13:02:46.702Z,43.64
2023-05-06T13:04:49.448Z,43.89
2023-05-06T13:06:54.088Z,43.87
2023-05-06T13:08:55.753Z,43.54
2023-05-06T13:10:57.403Z,43.32
2023-05-06T13:12:58.992Z,43.06
2023-05-06T13:15:00.702Z,43.16
2023-05-06T13:17:04.857Z,42.59
2023-05-06T13:19:07.222Z,43.10
2023-05-06T13:21:13.178Z,43.79
2023-05-06T13:23:15.092Z,43.49
2023-05-06T13:25:16.667Z,43.92
2023-05-06T13:27:18.286Z,44.17
2023-05-06T13:29:19.947Z,44.25
2023-05-06T13:31:22.093Z,44.68
2023-05-06T13:33:23.779Z,44.58
2023-05-06T13:35:25.342Z,44.14
2023-05-06T13:37:26.887Z,44.16
2023-05-06T13:39:28.529Z,44.29
2023-05-06T13:41:30.076Z,44.02
2023-05-06T13:43:31.657Z,44.02
2023-05-06T13:45:33.717Z,44.08
2023-05-06T13:47:35.328Z,44.03
2023-05-06T13:49:36.984Z,44.00
2023-05-06T13:51:38.596Z,44.34
2023-05-06T13:53:40.233Z,44.57
2023-05-06T13:55:43.593Z,44.08
2023-05-06T13:57:45.190Z,43.71
2023-05-06T13:59:46.853Z,44.81
2023-05-06T14:01:50.068Z,45.01
2023-05-06T14:03:52.700Z,44.79
2023-05-06T14:05:54.810Z,45.03
2023-05-06T14:07:56.373Z,44.60
2023-05-06T14:09:58.555Z,44.31
2023-05-06T14:12:00.147Z,44.49
2023-05-06T14:14:02.486Z,44.67
2023-05-06T14:16:04.226Z,44.75
2023-05-06T14:18:05.958Z,44.82
2023-05-06T14:20:09.539Z,44.38
2023-05-06T14:22:11.270Z,43.97
2023-05-06T14:24:12.941Z,42.47
2023-05-06T14:26:14.588Z,41.56
2023-05-06T14:28:16.186Z,41.05
2023-05-06T14:30:17.925Z,40.86
2023-05-06T14:32:19.520Z,40.59
2023-05-06T14:34:21.194Z,40.29
2023-05-06T14:36:22.768Z,40.95
2023-05-06T14:38:24.346Z,40.76
2023-05-06T14:40:26.061Z,40.71
2023-05-06T14:42:27.644Z,40.50
2023-05-06T14:44:29.302Z,39.69
2023-05-06T14:46:31.043Z,39.97
2023-05-06T14:48:32.712Z,40.27
2023-05-06T14:50:34.540Z,40.83
2023-05-06T14:52:38.893Z,41.03
2023-05-06T14:54:42.363Z,40.27
2023-05-06T14:56:49.515Z,40.81
2023-05-06T14:58:51.554Z,40.55
2023-05-06T15:00:53.255Z,40.78
2023-05-06T15:02:54.872Z,42.39
2023-05-06T15:04:56.550Z,43.25
2023-05-06T15:06:58.208Z,43.87
2023-05-06T15:08:59.825Z,44.47
2023-05-06T15:11:03.820Z,45.08
2023-05-06T15:13:05.981Z,44.75
2023-05-06T15:15:08.362Z,44.67
2023-05-06T15:17:10.146Z,44.45
2023-05-06T15:19:11.785Z,44.59
2023-05-06T15:21:13.891Z,44.30
2023-05-06T15:23:15.474Z,44.38
2023-05-06T15:25:30.290Z,44.55
2023-05-06T15:27:37.356Z,44.29
2023-05-06T15:29:41.970Z,44.49
2023-05-06T15:31:46.792Z,44.23
2023-05-06T15:33:48.478Z,44.01
2023-05-06T15:35:50.486Z,44.31
2023-05-06T15:37:55.552Z,44.13
2023-05-06T15:39:57.220Z,44.41
2023-05-06T15:41:59.754Z,44.20
2023-05-06T15:44:02.536Z,43.91
2023-05-06T15:46:04.224Z,44.05
2023-05-06T15:48:06.034Z,44.36
2023-05-06T15:50:17.834Z,44.53
2023-05-06T15:52:29.577Z,44.83
2023-05-06T15:54:31.582Z,45.49
2023-05-06T15:56:39.397Z,44.63
2023-05-06T15:58:43.729Z,44.75
2023-05-06T16:00:45.363Z,44.65
2023-05-06T16:02:47.116Z,44.72
2023-05-06T16:04:49.103Z,44.40
2023-05-06T16:06:50.825Z,44.61
2023-05-06T16:08:52.483Z,43.60
2023-05-06T16:10:54.199Z,43.49
2023-05-06T16:12:55.807Z,42.33
2023-05-06T16:14:57.663Z,42.41
2023-05-06T16:16:59.443Z,42.72
2023-05-06T16:19:01.042Z,42.98
2023-05-06T16:21:02.742Z,43.38
2023-05-06T16:23:05.317Z,43.42
2023-05-06T16:25:07.152Z,43.08
2023-05-06T16:27:08.729Z,43.11
2023-05-06T16:29:10.595Z,42.99
2023-05-06T16:31:12.265Z,42.67
2023-05-06T16:33:14.575Z,41.81
2023-05-06T16:35:17.658Z,41.54
2023-05-06T16:37:19.269Z,41.89
2023-05-06T16:39:20.889Z,41.99
2023-05-06T16:41:22.491Z,42.58
2023-05-06T16:43:24.148Z,43.17
2023-05-06T16:45:25.829Z,44.00
2023-05-06T16:47:27.617Z,44.78
2023-05-06T16:49:29.480Z,44.87
2023-05-06T16:51:32.083Z,45.07
2023-05-06T16:53:33.701Z,45.63
2023-05-06T16:55:35.281Z,45.98
2023-05-06T16:57:36.891Z,45.97
2023-05-06T16:59:38.583Z,46.86
2023-05-06T17:01:40.249Z,47.64
2023-05-06T17:03:41.912Z,47.79
2023-05-06T17:05:43.605Z,47.86
2023-05-06T17:07:45.601Z,47.94
2023-05-06T17:09:47.160Z,48.00
2023-05-06T17:11:49.419Z,47.91
2023-05-06T17:13:51.048Z,48.56
2023-05-06T17:15:52.740Z,48.58
2023-05-06T17:17:54.432Z,48.77
2023-05-06T17:19:57.653Z,48.49
2023-05-06T17:21:59.259Z,48.84
2023-05-06T17:24:01.023Z,49.29
2023-05-06T17:26:06.414Z,49.33
2023-05-06T17:28:11.408Z,49.63
2023-05-06T17:30:14.632Z,49.86
2023-05-06T17:32:16.393Z,49.84
2023-05-06T17:34:17.977Z,49.75
2023-05-06T17:36:20.799Z,49.99
2023-05-06T17:38:22.398Z,50.31
2023-05-06T17:40:24.590Z,50.35
2023-05-06T17:42:27.556Z,50.46
2023-05-06T17:44:29.246Z,50.76
2023-05-06T17:46:31.357Z,50.63
2023-05-06T17:48:33.046Z,50.69
2023-05-06T17:50:34.665Z,50.79
2023-05-06T17:52:36.281Z,50.79
2023-05-06T17:54:38.235Z,50.89
2023-05-06T17:56:39.843Z,50.83
2023-05-06T17:58:41.465Z,51.05
2023-05-06T18:00:43.137Z,50.98
2023-05-06T18:02:45.181Z,51.38
2023-05-06T18:04:47.555Z,51.52
2023-05-06T18:06:49.111Z,51.52
2023-05-06T18:08:50.792Z,51.84
2023-05-06T18:10:52.366Z,51.83
2023-05-06T18:12:55.666Z,52.03
2023-05-06T18:14:57.668Z,52.21
2023-05-06T18:16:59.262Z,52.26
2023-05-06T18:19:02.649Z,52.54
2023-05-06T18:21:04.248Z,52.28
2023-05-06T18:23:07.498Z,53.22
2023-05-06T18:25:09.571Z,52.92
2023-05-06T18:27:12.988Z,52.97
2023-05-06T18:29:14.819Z,53.12
2023-05-06T18:31:16.498Z,53.27
2023-05-06T18:33:18.473Z,53.12
2023-05-06T18:35:20.098Z,53.12
2023-05-06T18:37:21.714Z,53.08
2023-05-06T18:39:24.067Z,52.98
2023-05-06T18:41:25.815Z,52.87
2023-05-06T18:43:27.511Z,53.08
2023-05-06T18:45:29.582Z,53.22
2023-05-06T18:47:32.248Z,53.30
2023-05-06T18:49:35.380Z,53.60
2023-05-06T18:51:37.338Z,54.12
2023-05-06T18:53:39.013Z,54.27
2023-05-06T18:55:40.608Z,54.45
2023-05-06T18:57:42.211Z,54.49
2023-05-06T18:59:43.738Z,54.29
2023-05-06T19:01:46.078Z,54.00
2023-05-06T19:03:47.728Z,53.99
2023-05-06T19:05:49.432Z,53.67
2023-05-06T19:07:51.595Z,54.09
2023-05-06T19:09:53.210Z,53.88
2023-05-06T19:11:55.526Z,54.00
2023-05-06T19:13:57.122Z,53.59
2023-05-06T19:15:58.905Z,53.77
2023-05-06T19:18:00.543Z,53.54
2023-05-06T19:20:02.145Z,53.80
2023-05-06T19:22:04.222Z,53.46
2023-05-06T19:24:06.397Z,53.61
2023-05-06T19:26:10.979Z,53.71
2023-05-06T19:28:12.568Z,53.65
2023-05-06T19:30:14.387Z,53.66
2023-05-06T19:32:16.004Z,53.89
2023-05-06T19:34:17.605Z,54.06
2023-05-06T19:36:19.141Z,54.12
2023-05-06T19:38:21.514Z,54.12
2023-05-06T19:40:23.333Z,54.14
2023-05-06T19:42:24.892Z,54.26
2023-05-06T19:44:26.940Z,54.36
2023-05-06T19:46:28.601Z,54.34
2023-05-06T19:48:30.406Z,54.41
2023-05-06T19:50:33.495Z,54.19
2023-05-06T19:52:35.193Z,54.29
2023-05-06T19:54:36.782Z,54.33
2023-05-06T19:56:39.137Z,54.12
2023-05-06T19:58:41.068Z,54.17
2023-05-06T20:00:43.448Z,54.24
2023-05-06T20:02:45.608Z,54.12
2023-05-06T20:04:47.266Z,54.15
2023-05-06T20:06:48.892Z,54.05
2023-05-06T20:08:50.517Z,54.24
2023-05-06T20:10:52.245Z,54.36
2023-05-06T20:12:56.081Z,54.19
2023-05-06T20:14:59.475Z,54.29
2023-05-06T20:17:02.565Z,54.20
2023-05-06T20:19:04.339Z,54.02
2023-05-06T20:21:06.302Z,54.02
2023-05-06T20:23:07.894Z,53.98
2023-05-06T20:25:17.579Z,54.28
2023-05-06T20:27:22.701Z,54.21
2023-05-06T20:29:24.356Z,54.19
2023-05-06T20:31:26.008Z,54.16
2023-05-06T20:33:27.675Z,54.25
2023-05-06T20:35:29.266Z,54.21
2023-05-06T20:37:31.366Z,54.39
2023-05-06T20:39:33.206Z,54.40
2023-05-06T20:41:34.828Z,54.34
2023-05-06T20:43:36.530Z,54.51
2023-05-06T20:45:38.181Z,54.37
2023-05-06T20:47:39.864Z,54.10
2023-05-06T20:49:41.540Z,54.18
2023-05-06T20:51:43.183Z,54.05
2023-05-06T20:53:46.224Z,54.16
2023-05-06T20:55:47.941Z,54.14
2023-05-06T20:57:49.993Z,54.09
2023-05-06T20:59:52.629Z,54.15
2023-05-06T21:01:54.687Z,54.15
2023-05-06T21:03:56.698Z,53.80
2023-05-06T21:05:58.286Z,53.94
2023-05-06T21:07:59.912Z,54.10
2023-05-06T21:10:03.864Z,54.25
2023-05-06T21:12:05.686Z,54.17
2023-05-06T21:14:07.511Z,54.21
2023-05-06T21:16:09.122Z,54.12
2023-05-06T21:18:11.046Z,54.22
2023-05-06T21:20:13.183Z,54.04
2023-05-06T21:22:15.389Z,54.14
2023-05-06T21:24:17.077Z,54.19
2023-05-06T21:26:18.607Z,54.49
2023-05-06T21:28:20.187Z,54.41
2023-05-06T21:30:22.269Z,54.40
2023-05-06T21:32:23.890Z,54.52
2023-05-06T21:34:26.561Z,54.53
2023-05-06T21:36:28.140Z,54.66
2023-05-06T21:38:29.696Z,54.88
2023-05-06T21:40:31.510Z,54.91
2023-05-06T21:42:33.145Z,55.19
2023-05-06T21:44:34.719Z,55.12
2023-05-06T21:46:37.819Z,55.16
2023-05-06T21:48:39.642Z,55.14
2023-05-06T21:50:41.248Z,55.00
2023-05-06T21:52:42.927Z,55.31
2023-05-06T21:54:46.122Z,55.14
2023-05-06T21:56:47.700Z,55.17
2023-05-06T21:58:49.388Z,55.36
2023-05-06T22:00:52.290Z,55.25
2023-05-06T22:02:54.518Z,55.10
2023-05-06T22:04:56.634Z,55.69
2023-05-06T22:06:58.284Z,55.60
2023-05-06T22:08:59.842Z,55.35
2023-05-06T22:11:01.838Z,55.64
2023-05-06T22:13:03.834Z,55.54
2023-05-06T22:15:07.101Z,55.54
2023-05-06T22:17:10.570Z,55.30
2023-05-06T22:19:14.346Z,55.60
2023-05-06T22:21:15.941Z,55.54
2023-05-06T22:23:19.217Z,55.58
2023-05-06T22:25:20.918Z,55.53
2023-05-06T22:27:22.640Z,55.59
2023-05-06T22:29:24.173Z,55.75
2023-05-06T22:31:25.911Z,55.86
2023-05-06T22:33:27.825Z,55.82
2023-05-06T22:35:29.412Z,56.11
2023-05-06T22:37:31.151Z,56.22
2023-05-06T22:39:32.734Z,56.28
2023-05-06T22:41:34.343Z,56.13
2023-05-06T22:43:35.907Z,56.20
2023-05-06T22:45:37.546Z,56.11
2023-05-06T22:47:39.356Z,56.08
2023-05-06T22:49:40.905Z,56.94
2023-05-06T22:51:42.555Z,57.02
2023-05-06T22:53:44.287Z,57.85
2023-05-06T22:55:45.814Z,59.31
2023-05-06T22:57:50.107Z,60.66
2023-05-06T22:59:51.701Z,63.14
2023-05-06T23:01:53.364Z,65.08
2023-05-06T23:03:55.098Z,64.67
2023-05-06T23:05:56.957Z,64.25
2023-05-06T23:07:58.543Z,64.53
2023-05-06T23:10:00.208Z,64.45
2023-05-06T23:12:02.788Z,64.95
2023-05-06T23:14:04.698Z,65.35
2023-05-06T23:16:07.816Z,65.56
2023-05-06T23:18:09.461Z,65.62
2023-05-06T23:20:12.903Z,66.08
2023-05-06T23:22:14.578Z,66.44
2023-05-06T23:24:16.139Z,66.65
2023-05-06T23:26:17.882Z,67.26
2023-05-06T23:28:19.728Z,67.53
2023-05-06T23:30:21.356Z,67.68
2023-05-06T23:32:22.975Z,67.89
2023-05-06T23:34:24.641Z,67.50
2023-05-06T23:36:27.395Z,66.90
2023-05-06T23:38:29.117Z,65.82
2023-05-06T23:40:30.802Z,65.22
2023-05-06T23:42:32.403Z,64.83
2023-05-06T23:44:33.982Z,64.57
2023-05-06T23:46:35.759Z,64.12
2023-05-06T23:48:37.680Z,64.02
2023-05-06T23:50:39.396Z,65.10
2023-05-06T23:52:41.217Z,65.37
2023-05-06T23:54:42.910Z,65.39
2023-05-06T23:56:44.880Z,66.83
2023-05-06T23:58:46.444Z,66.98
